Lincoln Airport
KLNK : now visible

Airfield :











YOU CAN JOIN US ON...

 
LOGIN :

Register | Disclaimer

   EN    FR    IT 

 









Legend :    VFR   Marginal VFR   IFR   Intensive IFR   Very Intensive IFR
Visi :
Ceiling :
>= 8 km
>= 3000ft
5 to 8 km
1000 to 3000 ft
1500m to 5 km
500 to 1000 ft
800 to 1500m
200 to 500 ft
< 800m
< 200 ft
Symbols :   Thunderstorms  Fog  Heavy snow  Heavy precipitations  Wind > 20 kt







- Airport Elevation : 1219 ft
- IATA code : LNK


KLNK - Lincoln

CURRENT METAR :
  • 210859Z AUTO 36009G20KT 1 3/4SM +TSRA BR FEW007 SCT021 OVC046 22/21 A2995 RMK AO2 WSHFT 0841 LTG DSNT ALQDS P0002 T02170206

EXPIRED METARs :
  • 210841Z AUTO 10014G25KT 2 1/2SM TSRA BR FEW009 OVC042 22/20 A2990 RMK AO2 WSHFT 0818 LTG DSNT ALQDS RAB23 TSE06B29 P0011 T02170200
  • 210833Z AUTO 08015G23KT 3SM +TSRA BR FEW009 SCT013 OVC040 22/21 A2992 RMK AO2 WSHFT 0818 LTG DSNT ALQDS RAB23 TSE06B29 P0000 T02220206
  • 210829Z AUTO 09018G23KT 4SM TSRA BR FEW009 BKN013 OVC038 22/20 A2991 RMK AO2 WSHFT 0758 LTG DSNT ALQDS RAB23 TSE06B29 PRESFR P0000 T02220200
  • 210812Z AUTO 02013KT 10SM VCTS FEW009 OVC015 23/20 A2994 RMK AO2 WSHFT 0758 LTG DSNT ALQDS TSE06 T02280200
  • 210754Z AUTO 07016G23KT 10SM TS BKN018 BKN024 OVC033 24/19 A2994 RMK AO2 PK WND 07026/0655 LTG DSNT ALQDS TSB51 SLP122 T02390194
  • 210749Z AUTO 08018KT 10SM VCTS SCT018 BKN024 OVC033 24/19 A2993 RMK AO2 PK WND 07026/0655 LTG DSNT ALQDS
  • 210736Z AUTO 07016G21KT 10SM SCT017 BKN025 OVC030 24/19 A2993 RMK AO2 PK WND 07026/0655 LTG DSNT NW-E T02390194
  • 210654Z AUTO 08012G21KT 10SM OVC016 24/21 A2993 RMK AO2 LTG DSNT NE AND E SLP120 T02440206
  • 210616Z AUTO 04010KT 10SM OVC018 24/20 A2991 RMK AO2 LTG DSNT E T02440200

TAF KLNK
Valid from the 21 at 08:00 until the 22 at 06:00 UTC


210814Z 2108/2206 07015KT 6SM -TSRA BKN015CB
TEMPO 2108/2112 VRB20G35KT 2SM TSRA BR OVC009CB
FM211600 04009KT 6SM -SHRA BR VCTS OVC015CB
FM220000 02010KT P6SM OVC025
FM220400 02006KT P6SM SCT070
KZMP FIR / North America



MET'MAP, your aeronautical weather chart ! - Copyright ORBIFLY December 2007 - Disclaimer

ORBIFLY MET'MAP TEAM :

Programming & Development : Alexandra Zaïnal
Concept & Development : Baudouin d'Aumeries
Co-Development & Prog : Marc-Olivier Méhu
Technical & hardware support : Manuel Goepfert

Contact : metmap@orbifly.com




SOURCES & CREDITS :

   NOAA       Earth
Advisory